createdAt,value
2023-02-12T00:01:17.856Z,78.70
2023-02-12T00:03:44.509Z,78.50
2023-02-12T00:06:13.563Z,78.40
2023-02-12T00:08:42.189Z,78.40
2023-02-12T00:11:14.660Z,78.40
2023-02-12T00:13:41.865Z,78.20
2023-02-12T00:16:10.726Z,78.20
2023-02-12T00:18:37.565Z,78.20
2023-02-12T00:21:04.871Z,78.00
2023-02-12T00:23:32.192Z,78.00
2023-02-12T00:25:58.803Z,78.00
2023-02-12T00:28:25.710Z,78.20
2023-02-12T00:30:52.467Z,78.30
2023-02-12T00:33:19.098Z,78.40
2023-02-12T00:35:45.649Z,78.60
2023-02-12T00:38:12.253Z,78.50
2023-02-12T00:40:38.858Z,78.60
2023-02-12T00:43:05.971Z,78.70
2023-02-12T00:45:32.601Z,78.60
2023-02-12T00:47:59.169Z,78.60
2023-02-12T00:50:25.786Z,78.70
2023-02-12T00:52:52.285Z,78.90
2023-02-12T00:55:19.387Z,79.20
2023-02-12T00:57:46.081Z,79.20
2023-02-12T01:00:14.309Z,79.20
2023-02-12T01:02:40.861Z,79.10
2023-02-12T01:05:07.953Z,79.10
2023-02-12T01:07:34.558Z,79.00
2023-02-12T01:10:01.109Z,79.00
2023-02-12T01:12:27.662Z,79.00
2023-02-12T01:14:54.183Z,79.10
2023-02-12T01:17:20.702Z,78.90
2023-02-12T01:19:47.228Z,78.70
2023-02-12T01:22:13.764Z,78.70
2023-02-12T01:24:40.653Z,78.50
2023-02-12T01:27:07.199Z,78.80
2023-02-12T01:29:33.906Z,78.50
2023-02-12T01:32:00.614Z,78.50
2023-02-12T01:34:27.246Z,78.60
2023-02-12T01:36:53.769Z,78.80
2023-02-12T01:39:20.296Z,78.90
2023-02-12T01:41:47.007Z,79.00
2023-02-12T01:44:18.297Z,79.00
2023-02-12T01:46:46.640Z,79.00
2023-02-12T01:49:24.361Z,79.10
2023-02-12T01:52:00.642Z,79.20
2023-02-12T01:54:28.692Z,79.10
2023-02-12T01:56:55.535Z,79.40
2023-02-12T01:59:22.453Z,79.60
2023-02-12T02:01:49.091Z,79.70
2023-02-12T02:04:19.724Z,79.90
2023-02-12T02:07:01.011Z,79.70
2023-02-12T02:09:30.104Z,79.70
2023-02-12T02:12:15.786Z,79.90
2023-02-12T02:14:43.064Z,79.80
2023-02-12T02:17:34.854Z,79.80
2023-02-12T02:20:48.625Z,79.80
2023-02-12T02:23:30.183Z,79.70
2023-02-12T02:26:38.450Z,79.90
2023-02-12T02:29:30.516Z,80.20
2023-02-12T02:32:06.176Z,80.50
2023-02-12T02:35:10.375Z,80.10
2023-02-12T02:37:47.708Z,79.80
2023-02-12T02:40:26.716Z,79.80
2023-02-12T02:43:05.316Z,79.90
2023-02-12T02:45:42.136Z,80.30
2023-02-12T02:48:15.642Z,80.50
2023-02-12T02:50:47.336Z,81.10
2023-02-12T02:53:26.814Z,81.60
2023-02-12T02:55:57.386Z,81.10
2023-02-12T02:58:30.283Z,81.20
2023-02-12T03:01:17.849Z,81.20
2023-02-12T03:04:13.426Z,81.60
2023-02-12T03:06:47.072Z,81.70
2023-02-12T03:09:28.748Z,81.40
2023-02-12T03:12:00.254Z,81.50
2023-02-12T03:14:32.039Z,81.40
2023-02-12T03:17:12.472Z,81.20
2023-02-12T03:19:44.915Z,81.00
2023-02-12T03:22:16.700Z,81.10
2023-02-12T03:25:05.531Z,80.90
2023-02-12T03:27:37.130Z,81.10
2023-02-12T03:30:04.570Z,80.90
2023-02-12T03:32:40.981Z,81.10
2023-02-12T03:35:28.746Z,81.20
2023-02-12T03:38:07.532Z,81.20
2023-02-12T03:40:56.245Z,81.30
2023-02-12T03:43:33.003Z,81.30
2023-02-12T03:46:17.668Z,81.50
2023-02-12T03:48:58.435Z,81.50
2023-02-12T03:51:34.906Z,81.30
2023-02-12T03:54:02.391Z,81.30
2023-02-12T03:56:35.195Z,81.60
2023-02-12T03:59:02.804Z,81.60
2023-02-12T04:01:29.647Z,81.60
2023-02-12T04:03:57.148Z,81.70
2023-02-12T04:06:28.923Z,81.70
2023-02-12T04:08:59.070Z,81.70
2023-02-12T04:11:52.483Z,81.50
2023-02-12T04:14:35.584Z,81.70
2023-02-12T04:17:26.445Z,81.80
2023-02-12T04:20:04.697Z,82.10
2023-02-12T04:22:46.082Z,82.20
2023-02-12T04:25:37.996Z,82.10
2023-02-12T04:28:16.520Z,82.00
2023-02-12T04:31:01.216Z,82.00
2023-02-12T04:33:36.423Z,81.90
2023-02-12T04:36:16.774Z,82.00
2023-02-12T04:38:46.798Z,82.30
2023-02-12T04:41:13.913Z,82.00
2023-02-12T04:43:40.456Z,82.30
2023-02-12T04:46:08.548Z,82.30
2023-02-12T04:48:39.676Z,82.60
2023-02-12T04:51:06.165Z,82.40
2023-02-12T04:53:32.819Z,82.40
2023-02-12T04:55:59.352Z,82.20
2023-02-12T04:58:25.870Z,82.20
2023-02-12T05:00:52.384Z,82.40
2023-02-12T05:03:18.914Z,82.80
2023-02-12T05:05:45.461Z,83.00
2023-02-12T05:08:11.978Z,82.80
2023-02-12T05:10:38.555Z,82.80
2023-02-12T05:13:05.052Z,83.20
2023-02-12T05:15:31.618Z,83.20
2023-02-12T05:17:58.150Z,82.90
2023-02-12T05:20:24.750Z,82.80
2023-02-12T05:22:53.322Z,82.80
2023-02-12T05:25:20.374Z,82.70
2023-02-12T05:27:47.249Z,82.60
2023-02-12T05:30:14.011Z,82.90
2023-02-12T05:32:40.611Z,82.80
2023-02-12T05:35:07.853Z,82.70
2023-02-12T05:37:36.121Z,82.90
2023-02-12T05:40:05.532Z,83.20
2023-02-12T05:42:32.194Z,83.50
2023-02-12T05:44:58.775Z,83.40
2023-02-12T05:47:25.332Z,83.60
2023-02-12T05:49:52.063Z,83.60
2023-02-12T05:52:18.626Z,83.50
2023-02-12T05:54:45.176Z,83.60
2023-02-12T05:57:11.743Z,83.70
2023-02-12T05:59:39.187Z,83.70
2023-02-12T06:02:05.771Z,84.00
2023-02-12T06:04:32.340Z,84.00
2023-02-12T06:07:00.671Z,84.00
2023-02-12T06:09:27.254Z,84.00
2023-02-12T06:11:53.761Z,84.10
2023-02-12T06:14:21.302Z,84.00
2023-02-12T06:16:50.827Z,84.20
2023-02-12T06:19:18.682Z,84.10
2023-02-12T06:21:46.216Z,84.20
2023-02-12T06:24:13.945Z,84.20
2023-02-12T06:26:40.818Z,84.50
2023-02-12T06:29:07.532Z,84.20
2023-02-12T06:31:36.434Z,84.50
2023-02-12T06:34:08.381Z,84.40
2023-02-12T06:36:41.518Z,84.30
2023-02-12T06:39:08.619Z,84.50
2023-02-12T06:41:35.164Z,84.60
2023-02-12T06:44:01.827Z,84.60
2023-02-12T06:46:28.416Z,84.60
2023-02-12T06:49:00.289Z,84.60
2023-02-12T06:51:28.856Z,84.80
2023-02-12T06:53:56.151Z,84.70
2023-02-12T06:56:24.379Z,84.40
2023-02-12T06:59:00.304Z,84.40
2023-02-12T07:01:29.309Z,84.40
2023-02-12T07:04:02.418Z,84.30
2023-02-12T07:06:30.801Z,84.10
2023-02-12T07:08:58.212Z,84.20
2023-02-12T07:11:26.411Z,83.80
2023-02-12T07:13:53.151Z,83.90
2023-02-12T07:16:20.072Z,83.80
2023-02-12T07:18:46.657Z,84.00
2023-02-12T07:21:14.551Z,84.30
2023-02-12T07:23:41.387Z,84.00
2023-02-12T07:26:11.505Z,83.90
2023-02-12T07:28:39.116Z,83.30
2023-02-12T07:31:17.293Z,83.00
2023-02-12T07:33:44.714Z,82.70
2023-02-12T07:36:17.162Z,82.20
2023-02-12T07:38:44.130Z,82.10
2023-02-12T07:41:13.669Z,81.40
2023-02-12T07:43:41.682Z,81.30
2023-02-12T07:46:14.304Z,81.50
2023-02-12T07:48:41.046Z,80.70
2023-02-12T07:51:09.970Z,80.90
2023-02-12T07:53:37.063Z,80.90
2023-02-12T07:56:14.951Z,80.70
2023-02-12T07:58:44.834Z,80.60
2023-02-12T08:01:30.005Z,80.40
2023-02-12T08:04:03.054Z,80.00
2023-02-12T08:06:31.684Z,79.70
2023-02-12T08:09:00.557Z,79.30
2023-02-12T08:11:28.976Z,78.50
2023-02-12T08:13:56.867Z,77.70
2023-02-12T08:16:25.105Z,77.20
2023-02-12T08:18:52.527Z,76.50
2023-02-12T08:21:21.345Z,76.10
2023-02-12T08:23:51.191Z,75.30
2023-02-12T08:26:21.018Z,74.30
2023-02-12T08:28:55.944Z,73.50
2023-02-12T08:31:55.162Z,72.50
2023-02-12T08:34:30.450Z,71.00
2023-02-12T08:36:57.775Z,70.20
2023-02-12T08:39:26.532Z,68.40
2023-02-12T08:41:57.534Z,67.80
2023-02-12T08:44:24.389Z,66.90
2023-02-12T08:46:52.998Z,66.30
2023-02-12T08:49:22.539Z,64.80
2023-02-12T08:51:52.511Z,63.60
2023-02-12T08:54:22.879Z,63.40
2023-02-12T08:56:50.333Z,63.00
2023-02-12T08:59:17.749Z,62.10
2023-02-12T09:01:44.968Z,61.90
2023-02-12T09:04:17.971Z,60.80
2023-02-12T09:06:45.926Z,60.40
2023-02-12T09:09:12.823Z,59.60
2023-02-12T09:11:39.548Z,59.00
2023-02-12T09:14:09.153Z,58.50
2023-02-12T09:16:37.213Z,57.20
2023-02-12T09:19:04.673Z,57.30
2023-02-12T09:21:31.286Z,57.40
2023-02-12T09:23:57.826Z,57.00
2023-02-12T09:26:28.556Z,56.80
2023-02-12T09:28:55.239Z,56.30
2023-02-12T09:31:27.560Z,55.40
2023-02-12T09:33:58.412Z,55.20
2023-02-12T09:36:25.563Z,54.90
2023-02-12T09:38:54.026Z,55.20
2023-02-12T09:41:54.042Z,54.90
2023-02-12T09:44:40.752Z,54.60
2023-02-12T09:47:31.290Z,54.00
2023-02-12T09:50:42.630Z,53.70
2023-02-12T09:53:14.872Z,53.70
2023-02-12T09:55:41.420Z,53.20
2023-02-12T09:58:15.537Z,53.40
2023-02-12T10:00:42.193Z,53.60
2023-02-12T10:03:14.657Z,53.40
2023-02-12T10:05:43.006Z,53.40
2023-02-12T10:08:12.576Z,53.80
2023-02-12T10:11:17.787Z,52.90
2023-02-12T10:14:21.738Z,52.40
2023-02-12T10:17:05.923Z,53.00
2023-02-12T10:19:44.367Z,52.90
2023-02-12T10:22:23.284Z,52.70
2023-02-12T10:25:27.438Z,53.50
2023-02-12T10:27:56.652Z,52.70
2023-02-12T10:30:31.667Z,52.70
2023-02-12T10:33:06.753Z,52.20
2023-02-12T10:35:34.834Z,52.40
2023-02-12T10:38:13.767Z,52.50
2023-02-12T10:40:44.696Z,51.60
2023-02-12T10:43:12.814Z,51.20
2023-02-12T10:45:42.221Z,51.70
2023-02-12T10:48:24.303Z,52.20
2023-02-12T10:51:02.607Z,52.20
2023-02-12T10:53:35.512Z,52.50
2023-02-12T10:56:22.977Z,52.60
2023-02-12T10:58:59.279Z,52.80
2023-02-12T11:01:33.302Z,52.80
2023-02-12T11:04:18.878Z,52.60
2023-02-12T11:07:04.749Z,52.40
2023-02-12T11:09:45.852Z,53.40
2023-02-12T11:12:24.538Z,52.80
2023-02-12T11:14:57.026Z,52.80
2023-02-12T11:17:39.427Z,53.60
2023-02-12T11:20:18.003Z,53.70
2023-02-12T11:22:55.250Z,54.10
2023-02-12T11:25:23.153Z,55.20
2023-02-12T11:28:05.076Z,54.90
2023-02-12T11:30:32.595Z,55.10
2023-02-12T11:33:27.421Z,56.40
2023-02-12T11:35:57.457Z,57.40
2023-02-12T11:38:28.356Z,58.10
2023-02-12T11:40:59.964Z,58.00
2023-02-12T11:43:29.260Z,58.40
2023-02-12T11:45:57.018Z,59.20
2023-02-12T11:48:31.492Z,59.60
2023-02-12T11:51:02.149Z,59.80
2023-02-12T11:53:50.986Z,60.40
2023-02-12T11:56:18.421Z,60.90
2023-02-12T11:58:47.017Z,60.80
2023-02-12T12:01:22.366Z,61.30
2023-02-12T12:04:08.132Z,61.90
2023-02-12T12:06:38.811Z,62.40
2023-02-12T12:09:27.707Z,62.20
2023-02-12T12:12:16.298Z,63.00
2023-02-12T12:15:08.740Z,63.20
2023-02-12T12:18:05.821Z,63.20
2023-02-12T12:20:41.098Z,64.20
2023-02-12T12:23:21.634Z,65.00
2023-02-12T12:26:22.130Z,65.60
2023-02-12T12:29:01.775Z,65.90
2023-02-12T12:31:41.764Z,65.40
2023-02-12T12:34:22.330Z,65.20
2023-02-12T12:37:12.010Z,65.60
2023-02-12T12:40:25.935Z,65.60
2023-02-12T12:43:02.104Z,65.50
2023-02-12T12:46:00.978Z,65.80
2023-02-12T12:48:59.054Z,65.80
2023-02-12T12:52:23.615Z,66.60
2023-02-12T12:55:40.220Z,66.90
2023-02-12T12:58:35.567Z,66.90
2023-02-12T13:01:05.012Z,67.20
2023-02-12T13:03:58.607Z,67.30
2023-02-12T13:06:31.578Z,67.50
2023-02-12T13:09:17.738Z,67.60
2023-02-12T13:11:56.344Z,67.70
2023-02-12T13:14:47.423Z,67.90
2023-02-12T13:17:23.219Z,68.40
2023-02-12T13:19:57.595Z,68.00
2023-02-12T13:22:40.138Z,68.10
2023-02-12T13:25:19.763Z,67.90
2023-02-12T13:27:47.884Z,67.40
2023-02-12T13:30:14.360Z,68.00
2023-02-12T13:32:47.052Z,68.20
2023-02-12T13:35:20.889Z,67.60
2023-02-12T13:37:51.222Z,68.60
2023-02-12T13:40:21.411Z,68.60
2023-02-12T13:42:53.868Z,68.30
2023-02-12T13:45:44.004Z,68.30
2023-02-12T13:48:42.745Z,68.90
2023-02-12T13:51:29.135Z,69.30
2023-02-12T13:53:59.674Z,69.80
2023-02-12T13:56:34.341Z,69.80
2023-02-12T13:59:01.029Z,70.20
2023-02-12T14:01:49.129Z,70.20
2023-02-12T14:04:22.812Z,70.10
2023-02-12T14:07:06.609Z,69.80
2023-02-12T14:09:37.921Z,70.10
2023-02-12T14:12:10.242Z,70.30
2023-02-12T14:14:44.783Z,70.50
2023-02-12T14:17:41.677Z,70.60
2023-02-12T14:20:25.618Z,70.10
2023-02-12T14:22:52.116Z,69.80
2023-02-12T14:25:24.375Z,70.60
2023-02-12T14:27:58.153Z,70.70
2023-02-12T14:30:31.836Z,70.40
2023-02-12T14:33:11.562Z,70.40
2023-02-12T14:35:43.601Z,70.30
2023-02-12T14:38:16.239Z,70.70
2023-02-12T14:40:50.138Z,71.10
2023-02-12T14:43:56.227Z,70.70
2023-02-12T14:46:22.764Z,70.80
2023-02-12T14:49:21.079Z,70.90
2023-02-12T14:52:17.984Z,71.10
2023-02-12T14:54:47.233Z,71.30
2023-02-12T14:57:35.008Z,71.90
2023-02-12T15:00:19.319Z,71.50
2023-02-12T15:02:59.750Z,71.60
2023-02-12T15:05:31.226Z,71.70
2023-02-12T15:08:28.228Z,71.60
2023-02-12T15:11:27.964Z,71.50
2023-02-12T15:14:03.277Z,71.60
2023-02-12T15:16:35.616Z,71.70
2023-02-12T15:19:20.512Z,71.80
2023-02-12T15:21:48.073Z,72.00
2023-02-12T15:24:23.206Z,72.30
2023-02-12T15:26:52.300Z,72.30
2023-02-12T15:29:33.318Z,72.30
2023-02-12T15:32:04.571Z,72.50
2023-02-12T15:34:35.290Z,72.60
2023-02-12T15:37:03.552Z,72.80
2023-02-12T15:39:43.865Z,72.90
2023-02-12T15:42:33.536Z,73.30
2023-02-12T15:45:15.058Z,73.60
2023-02-12T15:47:42.937Z,73.80
2023-02-12T15:50:15.916Z,74.00
2023-02-12T15:52:46.070Z,74.00
2023-02-12T15:55:25.662Z,74.30
2023-02-12T15:57:55.265Z,74.40
2023-02-12T16:00:35.369Z,74.30
2023-02-12T16:03:01.893Z,74.50
2023-02-12T16:05:29.649Z,74.40
2023-02-12T16:07:56.400Z,74.70
2023-02-12T16:10:23.559Z,74.90
2023-02-12T16:12:51.507Z,74.90
2023-02-12T16:15:30.747Z,75.00
2023-02-12T16:17:59.666Z,75.30
2023-02-12T16:20:28.514Z,75.40
2023-02-12T16:22:56.133Z,75.50
2023-02-12T16:25:31.292Z,75.60
2023-02-12T16:27:59.168Z,75.80
2023-02-12T16:30:27.122Z,76.40
2023-02-12T16:32:54.384Z,76.10
2023-02-12T16:35:26.059Z,76.30
2023-02-12T16:38:24.771Z,76.50
2023-02-12T16:41:26.001Z,76.70
2023-02-12T16:44:01.793Z,77.00
2023-02-12T16:46:49.687Z,77.10
2023-02-12T16:49:18.530Z,77.00
2023-02-12T16:51:46.178Z,77.10
2023-02-12T16:54:34.666Z,77.20
2023-02-12T16:57:02.194Z,77.20
2023-02-12T16:59:29.679Z,77.60
2023-02-12T17:02:02.586Z,77.90
2023-02-12T17:04:29.384Z,78.00
2023-02-12T17:06:56.671Z,78.30
2023-02-12T17:09:23.852Z,78.60
2023-02-12T17:11:50.898Z,78.90
2023-02-12T17:14:19.771Z,79.20
2023-02-12T17:16:47.057Z,79.60
2023-02-12T17:19:13.960Z,79.60
2023-02-12T17:21:43.351Z,79.70
2023-02-12T17:24:20.786Z,80.00
2023-02-12T17:26:47.462Z,81.00
2023-02-12T17:29:13.999Z,81.60
2023-02-12T17:31:40.626Z,82.00
2023-02-12T17:34:07.284Z,82.20
2023-02-12T17:36:34.473Z,82.40
2023-02-12T17:39:03.457Z,82.60
2023-02-12T17:41:31.102Z,82.90
2023-02-12T17:43:57.601Z,82.90
2023-02-12T17:46:26.734Z,83.00
2023-02-12T17:48:53.332Z,82.80
2023-02-12T17:51:20.117Z,83.10
2023-02-12T17:53:46.804Z,83.30
2023-02-12T17:56:17.664Z,83.10
2023-02-12T17:58:46.104Z,83.20
2023-02-12T18:01:15.850Z,83.30
2023-02-12T18:03:42.623Z,83.30
2023-02-12T18:06:13.802Z,83.30
2023-02-12T18:08:40.791Z,83.30
2023-02-12T18:11:10.281Z,83.60
2023-02-12T18:13:37.918Z,83.00
2023-02-12T18:16:09.356Z,83.10
2023-02-12T18:18:36.734Z,83.50
2023-02-12T18:21:11.269Z,84.00
2023-02-12T18:23:39.136Z,84.00
2023-02-12T18:26:11.169Z,84.00
2023-02-12T18:28:38.169Z,84.20
2023-02-12T18:31:05.954Z,84.30
2023-02-12T18:33:36.882Z,84.60
2023-02-12T18:36:06.638Z,85.20
2023-02-12T18:38:35.841Z,85.10
2023-02-12T18:41:18.420Z,85.30
2023-02-12T18:43:46.380Z,85.30
2023-02-12T18:46:15.968Z,85.30
2023-02-12T18:48:43.191Z,85.40
2023-02-12T18:51:14.067Z,85.50
2023-02-12T18:53:40.655Z,85.70
2023-02-12T18:56:08.783Z,85.80
2023-02-12T18:58:36.098Z,85.80
2023-02-12T19:01:17.334Z,85.70
2023-02-12T19:03:45.293Z,85.70
2023-02-12T19:06:12.054Z,85.70
2023-02-12T19:08:39.270Z,85.50
2023-02-12T19:11:07.169Z,85.60
2023-02-12T19:13:33.997Z,85.70
2023-02-12T19:16:09.644Z,85.80
2023-02-12T19:18:36.247Z,85.50
2023-02-12T19:21:10.697Z,85.50
2023-02-12T19:23:38.063Z,85.70
2023-02-12T19:26:09.533Z,85.70
2023-02-12T19:28:38.203Z,85.80
2023-02-12T19:31:32.467Z,85.80
2023-02-12T19:34:01.693Z,86.00
2023-02-12T19:36:32.552Z,86.30
2023-02-12T19:38:59.834Z,86.30
2023-02-12T19:41:28.539Z,86.30
2023-02-12T19:43:58.216Z,86.20
2023-02-12T19:46:27.908Z,86.60
2023-02-12T19:49:02.462Z,86.20
2023-02-12T19:51:30.270Z,86.20
2023-02-12T19:54:02.036Z,86.50
2023-02-12T19:56:28.880Z,86.50
2023-02-12T19:58:57.213Z,86.50
2023-02-12T20:01:24.611Z,86.30
2023-02-12T20:03:51.432Z,86.10
2023-02-12T20:06:24.683Z,86.70
2023-02-12T20:08:51.796Z,86.30
2023-02-12T20:11:24.003Z,87.00
2023-02-12T20:13:50.764Z,86.70
2023-02-12T20:16:20.402Z,86.90
2023-02-12T20:18:49.634Z,86.90
2023-02-12T20:21:27.266Z,86.80
2023-02-12T20:23:54.514Z,87.00
2023-02-12T20:26:21.918Z,86.80
2023-02-12T20:28:49.702Z,86.80
2023-02-12T20:31:25.405Z,87.10
2023-02-12T20:34:07.163Z,87.60
2023-02-12T20:36:36.580Z,87.50
2023-02-12T20:39:04.798Z,87.90
2023-02-12T20:41:31.358Z,87.40
2023-02-12T20:44:00.781Z,87.50
2023-02-12T20:46:27.958Z,87.70
2023-02-12T20:48:55.156Z,87.90
2023-02-12T20:51:24.650Z,88.20
2023-02-12T20:53:51.419Z,87.90
2023-02-12T20:56:24.572Z,87.30
2023-02-12T20:58:51.415Z,86.80
2023-02-12T21:01:32.614Z,87.30
2023-02-12T21:04:13.412Z,88.00
2023-02-12T21:06:41.499Z,87.80
2023-02-12T21:09:10.004Z,87.50
2023-02-12T21:11:37.282Z,87.30
2023-02-12T21:14:20.824Z,87.50
2023-02-12T21:16:48.771Z,87.90
2023-02-12T21:19:15.340Z,87.90
2023-02-12T21:21:44.992Z,87.80
2023-02-12T21:24:15.393Z,87.90
2023-02-12T21:26:42.309Z,88.00
2023-02-12T21:29:08.938Z,88.00
2023-02-12T21:31:38.368Z,88.30
2023-02-12T21:34:06.472Z,88.50
2023-02-12T21:36:36.952Z,89.10
2023-02-12T21:39:06.193Z,88.40
2023-02-12T21:41:35.801Z,88.10
2023-02-12T21:44:10.915Z,87.80
2023-02-12T21:46:37.650Z,87.80
2023-02-12T21:49:05.094Z,87.70
2023-02-12T21:51:34.565Z,87.90
2023-02-12T21:54:04.261Z,88.10
2023-02-12T21:56:31.249Z,88.10
2023-02-12T21:58:59.054Z,88.10
2023-02-12T22:01:28.730Z,88.40
2023-02-12T22:03:55.656Z,88.30
2023-02-12T22:06:24.518Z,88.10
2023-02-12T22:08:52.417Z,87.90
2023-02-12T22:11:20.324Z,87.80
2023-02-12T22:13:47.235Z,87.80
2023-02-12T22:16:17.555Z,88.20
2023-02-12T22:18:45.283Z,88.30
2023-02-12T22:21:13.795Z,88.50
2023-02-12T22:23:41.024Z,88.20
2023-02-12T22:26:15.949Z,88.30
2023-02-12T22:28:45.079Z,88.80
2023-02-12T22:31:14.083Z,88.30
2023-02-12T22:33:40.669Z,88.60
2023-02-12T22:36:09.146Z,88.80
2023-02-12T22:38:37.888Z,89.00
2023-02-12T22:41:05.335Z,89.10
2023-02-12T22:43:33.323Z,89.00
2023-02-12T22:46:00.329Z,89.20
2023-02-12T22:48:28.358Z,88.90
2023-02-12T22:50:55.838Z,89.70
2023-02-12T22:53:23.438Z,89.40
2023-02-12T22:55:50.094Z,89.70
2023-02-12T22:58:16.904Z,90.00
2023-02-12T23:00:44.085Z,89.80
2023-02-12T23:03:10.766Z,90.10
2023-02-12T23:05:38.395Z,90.00
2023-02-12T23:08:06.267Z,90.20
2023-02-12T23:10:33.583Z,90.20
2023-02-12T23:13:02.099Z,90.20
2023-02-12T23:15:28.935Z,90.40
2023-02-12T23:17:55.433Z,90.20
2023-02-12T23:20:22.026Z,90.30
2023-02-12T23:22:48.677Z,90.50
2023-02-12T23:25:15.326Z,90.40
2023-02-12T23:27:41.889Z,90.40
2023-02-12T23:30:09.052Z,90.40
2023-02-12T23:32:35.628Z,90.50
2023-02-12T23:35:02.185Z,90.50
2023-02-12T23:37:28.706Z,90.60
2023-02-12T23:39:55.389Z,90.50
2023-02-12T23:42:21.938Z,90.60
2023-02-12T23:44:48.478Z,90.40
2023-02-12T23:47:14.965Z,90.50
2023-02-12T23:49:41.498Z,90.30
2023-02-12T23:52:08.059Z,90.40
2023-02-12T23:54:34.646Z,90.40
2023-02-12T23:57:01.272Z,90.30
2023-02-12T23:59:27.792Z,90.30
